createdAt,value
2022-11-21T00:00:23.106Z,1005.88
2022-11-21T00:01:25.824Z,1005.85
2022-11-21T00:02:29.180Z,1005.87
2022-11-21T00:04:03.673Z,1005.90
2022-11-21T00:05:06.363Z,1005.90
2022-11-21T00:06:09.028Z,1005.94
2022-11-21T00:07:43.750Z,1006.01
2022-11-21T00:08:46.500Z,1005.97
2022-11-21T00:09:49.158Z,1005.96
2022-11-21T00:11:23.607Z,1005.93
2022-11-21T00:12:26.361Z,1005.91
2022-11-21T00:13:29.172Z,1005.92
2022-11-21T00:15:03.629Z,1005.84
2022-11-21T00:16:06.434Z,1005.88
2022-11-21T00:17:09.317Z,1005.86
2022-11-21T00:18:44.240Z,1005.88
2022-11-21T00:19:47.338Z,1005.93
2022-11-21T00:20:49.993Z,1005.93
2022-11-21T00:22:24.397Z,1005.93
2022-11-21T00:23:27.296Z,1005.92
2022-11-21T00:24:30.462Z,1005.90
2022-11-21T00:26:11.611Z,1006.01
2022-11-21T00:27:14.376Z,1006.00
2022-11-21T00:28:17.029Z,1005.97
2022-11-21T00:29:51.664Z,1006.04
2022-11-21T00:30:54.494Z,1006.08
2022-11-21T00:31:57.371Z,1006.06
2022-11-21T00:33:32.023Z,1005.99
2022-11-21T00:34:35.198Z,1006.01
2022-11-21T00:35:37.972Z,1005.95
2022-11-21T00:37:12.580Z,1005.91
2022-11-21T00:38:15.201Z,1005.87
2022-11-21T00:39:17.800Z,1005.89
2022-11-21T00:40:52.188Z,1005.91
2022-11-21T00:41:54.928Z,1005.89
2022-11-21T00:42:57.617Z,1005.91
2022-11-21T00:44:32.467Z,1005.90
2022-11-21T00:45:36.008Z,1005.96
2022-11-21T00:46:38.738Z,1005.96
2022-11-21T00:48:13.359Z,1006.01
2022-11-21T00:49:16.137Z,1005.97
2022-11-21T00:50:18.890Z,1005.94
2022-11-21T00:51:53.660Z,1005.96
2022-11-21T00:52:56.474Z,1005.95
2022-11-21T00:53:59.112Z,1006.06
2022-11-21T00:55:33.497Z,1006.04
2022-11-21T00:56:36.166Z,1006.08
2022-11-21T00:57:38.957Z,1006.08
2022-11-21T00:59:13.433Z,1006.09
2022-11-21T01:00:22.844Z,1006.10
2022-11-21T01:01:26.168Z,1006.06
2022-11-21T01:02:28.901Z,1006.10
2022-11-21T01:04:03.412Z,1006.07
2022-11-21T01:05:06.204Z,1006.11
2022-11-21T01:06:09.207Z,1006.06
2022-11-21T01:07:44.051Z,1006.03
2022-11-21T01:08:46.882Z,1006.05
2022-11-21T01:09:49.655Z,1005.99
2022-11-21T01:11:24.203Z,1006.02
2022-11-21T01:12:26.846Z,1005.98
2022-11-21T01:13:29.478Z,1005.89
2022-11-21T01:15:03.855Z,1005.90
2022-11-21T01:16:06.504Z,1005.91
2022-11-21T01:17:09.187Z,1005.90
2022-11-21T01:18:43.626Z,1005.95
2022-11-21T01:19:46.597Z,1005.95
2022-11-21T01:20:49.343Z,1005.99
2022-11-21T01:22:24.043Z,1006.02
2022-11-21T01:23:26.870Z,1006.03
2022-11-21T01:24:29.944Z,1006.08
2022-11-21T01:26:04.481Z,1006.14
2022-11-21T01:27:07.344Z,1006.18
2022-11-21T01:28:10.037Z,1006.22
2022-11-21T01:29:44.402Z,1006.14
2022-11-21T01:30:47.100Z,1006.14
2022-11-21T01:31:49.791Z,1006.14
2022-11-21T01:33:24.206Z,1006.14
2022-11-21T01:34:27.114Z,1006.14
2022-11-21T01:35:29.868Z,1006.18
2022-11-21T01:37:04.664Z,1006.25
2022-11-21T01:38:07.528Z,1006.23
2022-11-21T01:39:10.305Z,1006.26
2022-11-21T01:40:45.147Z,1006.19
2022-11-21T01:41:47.916Z,1006.25
2022-11-21T01:42:50.731Z,1006.20
2022-11-21T01:44:25.598Z,1006.23
2022-11-21T01:45:28.485Z,1006.22
2022-11-21T01:46:31.200Z,1006.25
2022-11-21T01:48:05.596Z,1006.22
2022-11-21T01:49:08.401Z,1006.22
2022-11-21T01:50:17.497Z,1006.20
2022-11-21T01:51:51.904Z,1006.22
2022-11-21T01:52:54.621Z,1006.20
2022-11-21T01:53:57.391Z,1006.19
2022-11-21T01:55:32.124Z,1006.16
2022-11-21T01:56:34.882Z,1006.12
2022-11-21T01:57:37.682Z,1006.12
2022-11-21T01:59:12.214Z,1006.13
2022-11-21T02:00:23.158Z,1006.12
2022-11-21T02:01:26.170Z,1006.12
2022-11-21T02:02:28.852Z,1006.09
2022-11-21T02:04:03.133Z,1006.07
2022-11-21T02:05:05.772Z,1005.98
2022-11-21T02:06:08.387Z,1005.94
2022-11-21T02:07:43.119Z,1005.89
2022-11-21T02:08:45.848Z,1005.86
2022-11-21T02:09:48.516Z,1005.83
2022-11-21T02:11:23.098Z,1005.79
2022-11-21T02:12:25.941Z,1005.77
2022-11-21T02:13:28.717Z,1005.79
2022-11-21T02:15:03.383Z,1005.81
2022-11-21T02:16:06.085Z,1005.75
2022-11-21T02:17:08.849Z,1005.81
2022-11-21T02:18:43.485Z,1005.88
2022-11-21T02:19:46.350Z,1005.91
2022-11-21T02:20:49.040Z,1005.97
2022-11-21T02:22:23.543Z,1006.02
2022-11-21T02:23:26.187Z,1006.07
2022-11-21T02:24:29.235Z,1006.10
2022-11-21T02:26:03.872Z,1006.11
2022-11-21T02:27:06.486Z,1006.13
2022-11-21T02:28:09.086Z,1006.11
2022-11-21T02:29:43.634Z,1006.07
2022-11-21T02:30:46.398Z,1006.08
2022-11-21T02:31:49.162Z,1006.10
2022-11-21T02:33:23.758Z,1006.07
2022-11-21T02:34:26.874Z,1006.06
2022-11-21T02:35:29.767Z,1006.05
2022-11-21T02:37:04.496Z,1006.03
2022-11-21T02:38:07.136Z,1006.01
2022-11-21T02:39:09.792Z,1005.99
2022-11-21T02:40:44.607Z,1006.00
2022-11-21T02:41:47.343Z,1005.98
2022-11-21T02:42:55.714Z,1006.00
2022-11-21T02:44:30.894Z,1005.94
2022-11-21T02:45:33.635Z,1005.90
2022-11-21T02:46:36.397Z,1005.92
2022-11-21T02:48:15.729Z,1005.82
2022-11-21T02:49:18.578Z,1005.81
2022-11-21T02:50:21.756Z,1005.78
2022-11-21T02:51:56.608Z,1005.82
2022-11-21T02:52:59.329Z,1005.93
2022-11-21T02:54:02.135Z,1005.97
2022-11-21T02:55:36.672Z,1005.93
2022-11-21T02:56:40.224Z,1005.94
2022-11-21T02:57:43.082Z,1005.94
2022-11-21T02:59:23.080Z,1005.96
2022-11-21T03:00:23.749Z,1005.96
2022-11-21T03:01:27.000Z,1005.91
2022-11-21T03:02:30.044Z,1005.93
2022-11-21T03:04:04.784Z,1005.87
2022-11-21T03:05:07.719Z,1005.89
2022-11-21T03:06:10.598Z,1005.89
2022-11-21T03:07:45.753Z,1005.89
2022-11-21T03:08:48.705Z,1005.92
2022-11-21T03:09:51.555Z,1005.91
2022-11-21T03:11:26.076Z,1005.91
2022-11-21T03:12:28.899Z,1005.92
2022-11-21T03:13:31.594Z,1005.89
2022-11-21T03:15:06.107Z,1005.93
2022-11-21T03:16:08.820Z,1005.90
2022-11-21T03:17:11.550Z,1005.90
2022-11-21T03:18:46.407Z,1005.91
2022-11-21T03:19:49.337Z,1005.91
2022-11-21T03:20:52.342Z,1005.89
2022-11-21T03:22:26.965Z,1005.81
2022-11-21T03:23:29.792Z,1005.82
2022-11-21T03:24:33.199Z,1005.73
2022-11-21T03:26:07.926Z,1005.71
2022-11-21T03:27:10.828Z,1005.70
2022-11-21T03:28:13.671Z,1005.71
2022-11-21T03:29:48.111Z,1005.72
2022-11-21T03:30:50.783Z,1005.72
2022-11-21T03:31:53.530Z,1005.70
2022-11-21T03:33:28.240Z,1005.67
2022-11-21T03:34:31.667Z,1005.63
2022-11-21T03:35:34.431Z,1005.61
2022-11-21T03:37:09.103Z,1005.60
2022-11-21T03:38:12.028Z,1005.61
2022-11-21T03:39:15.008Z,1005.65
2022-11-21T03:40:49.978Z,1005.70
2022-11-21T03:41:52.800Z,1005.69
2022-11-21T03:42:55.616Z,1005.73
2022-11-21T03:44:30.304Z,1005.68
2022-11-21T03:45:33.033Z,1005.67
2022-11-21T03:46:35.935Z,1005.60
2022-11-21T03:48:10.492Z,1005.56
2022-11-21T03:49:13.205Z,1005.55
2022-11-21T03:50:15.835Z,1005.50
2022-11-21T03:51:50.341Z,1005.51
2022-11-21T03:52:53.086Z,1005.52
2022-11-21T03:53:55.764Z,1005.53
2022-11-21T03:55:30.527Z,1005.56
2022-11-21T03:56:33.441Z,1005.59
2022-11-21T03:57:36.411Z,1005.62
2022-11-21T03:59:11.089Z,1005.61
2022-11-21T04:00:22.848Z,1005.59
2022-11-21T04:01:26.117Z,1005.58
2022-11-21T04:02:34.121Z,1005.63
2022-11-21T04:04:08.798Z,1005.61
2022-11-21T04:05:12.315Z,1005.61
2022-11-21T04:06:15.015Z,1005.61
2022-11-21T04:07:50.075Z,1005.56
2022-11-21T04:08:53.026Z,1005.53
2022-11-21T04:09:55.791Z,1005.52
2022-11-21T04:11:30.577Z,1005.50
2022-11-21T04:12:33.544Z,1005.50
2022-11-21T04:13:36.292Z,1005.47
2022-11-21T04:15:18.914Z,1005.47
2022-11-21T04:16:21.666Z,1005.51
2022-11-21T04:17:24.663Z,1005.48
2022-11-21T04:18:59.113Z,1005.52
2022-11-21T04:20:01.764Z,1005.52
2022-11-21T04:21:04.508Z,1005.55
2022-11-21T04:22:38.815Z,1005.59
2022-11-21T04:23:41.480Z,1005.60
2022-11-21T04:24:44.117Z,1005.67
2022-11-21T04:26:18.651Z,1005.64
2022-11-21T04:27:21.414Z,1005.66
2022-11-21T04:28:24.226Z,1005.65
2022-11-21T04:29:58.748Z,1005.61
2022-11-21T04:31:10.480Z,1005.62
2022-11-21T04:32:14.175Z,1005.58
2022-11-21T04:33:49.258Z,1005.59
2022-11-21T04:34:52.101Z,1005.57
2022-11-21T04:35:54.816Z,1005.56
2022-11-21T04:37:29.815Z,1005.52
2022-11-21T04:38:32.596Z,1005.55
2022-11-21T04:39:35.478Z,1005.51
2022-11-21T04:41:10.169Z,1005.51
2022-11-21T04:42:12.978Z,1005.47
2022-11-21T04:43:15.763Z,1005.47
2022-11-21T04:44:50.716Z,1005.43
2022-11-21T04:45:53.461Z,1005.46
2022-11-21T04:46:59.926Z,1005.40
2022-11-21T04:48:37.081Z,1005.42
2022-11-21T04:49:39.807Z,1005.37
2022-11-21T04:50:42.643Z,1005.36
2022-11-21T04:52:17.234Z,1005.40
2022-11-21T04:53:20.123Z,1005.37
2022-11-21T04:54:29.513Z,1005.45
2022-11-21T04:56:04.409Z,1005.44
2022-11-21T04:57:07.167Z,1005.47
2022-11-21T04:58:09.931Z,1005.45
2022-11-21T04:59:44.536Z,1005.43
2022-11-21T05:00:29.746Z,1005.42
2022-11-21T05:01:32.914Z,1005.40
2022-11-21T05:02:36.031Z,1005.35
2022-11-21T05:04:10.895Z,1005.34
2022-11-21T05:05:52.938Z,1005.32
2022-11-21T05:06:56.063Z,1005.26
2022-11-21T05:07:59.550Z,1005.29
2022-11-21T05:09:40.183Z,1005.31
2022-11-21T05:10:43.373Z,1005.26
2022-11-21T05:11:46.501Z,1005.25
2022-11-21T05:13:21.622Z,1005.22
2022-11-21T05:14:24.772Z,1005.26
2022-11-21T05:15:35.624Z,1005.20
2022-11-21T05:17:10.279Z,1005.21
2022-11-21T05:18:13.303Z,1005.20
2022-11-21T05:19:16.317Z,1005.21
2022-11-21T05:20:51.601Z,1005.16
2022-11-21T05:21:54.523Z,1005.22
2022-11-21T05:22:57.524Z,1005.24
2022-11-21T05:24:32.805Z,1005.30
2022-11-21T05:25:35.957Z,1005.34
2022-11-21T05:26:38.879Z,1005.36
2022-11-21T05:28:13.699Z,1005.41
2022-11-21T05:29:16.572Z,1005.42
2022-11-21T05:30:25.723Z,1005.39
2022-11-21T05:32:00.597Z,1005.33
2022-11-21T05:33:03.494Z,1005.36
2022-11-21T05:34:06.623Z,1005.31
2022-11-21T05:35:48.662Z,1005.25
2022-11-21T05:36:51.425Z,1005.29
2022-11-21T05:37:54.693Z,1005.24
2022-11-21T05:39:29.677Z,1005.23
2022-11-21T05:40:32.892Z,1005.24
2022-11-21T05:41:35.755Z,1005.21
2022-11-21T05:43:10.402Z,1005.12
2022-11-21T05:44:13.262Z,1005.08
2022-11-21T05:45:17.035Z,1005.03
2022-11-21T05:46:51.953Z,1005.02
2022-11-21T05:47:55.028Z,1005.07
2022-11-21T05:48:58.233Z,1005.05
2022-11-21T05:50:32.987Z,1005.05
2022-11-21T05:51:36.088Z,1004.99
2022-11-21T05:52:38.832Z,1005.06
2022-11-21T05:54:13.645Z,1005.07
2022-11-21T05:55:17.180Z,1005.08
2022-11-21T05:56:20.361Z,1005.08
2022-11-21T05:57:55.050Z,1005.12
2022-11-21T05:58:58.096Z,1005.08
2022-11-21T06:00:00.942Z,1005.01
2022-11-21T06:00:23.926Z,1005.01
2022-11-21T06:01:27.072Z,1005.00
2022-11-21T06:02:30.169Z,1005.03
2022-11-21T06:04:05.368Z,1005.09
2022-11-21T06:05:08.305Z,1005.11
2022-11-21T06:06:11.463Z,1005.12
2022-11-21T06:07:54.646Z,1005.09
2022-11-21T06:08:57.635Z,1005.07
2022-11-21T06:10:00.592Z,1005.06
2022-11-21T06:11:35.730Z,1005.09
2022-11-21T06:12:38.573Z,1005.07
2022-11-21T06:13:41.603Z,1005.04
2022-11-21T06:15:17.185Z,1005.10
2022-11-21T06:16:20.405Z,1005.14
2022-11-21T06:17:23.769Z,1005.14
2022-11-21T06:19:04.184Z,1005.19
2022-11-21T06:20:07.109Z,1005.17
2022-11-21T06:21:10.014Z,1005.14
2022-11-21T06:22:45.071Z,1005.14
2022-11-21T06:23:47.951Z,1005.08
2022-11-21T06:24:51.086Z,1005.05
2022-11-21T06:26:25.951Z,1005.06
2022-11-21T06:27:28.760Z,1005.04
2022-11-21T06:28:31.921Z,1004.99
2022-11-21T06:30:06.973Z,1004.98
2022-11-21T06:31:14.252Z,1004.91
2022-11-21T06:32:17.527Z,1004.95
2022-11-21T06:33:52.924Z,1004.94
2022-11-21T06:34:55.835Z,1004.92
2022-11-21T06:35:58.814Z,1004.90
2022-11-21T06:37:33.874Z,1004.79
2022-11-21T06:38:42.524Z,1004.78
2022-11-21T06:39:45.377Z,1004.76
2022-11-21T06:41:20.410Z,1004.72
2022-11-21T06:42:23.188Z,1004.70
2022-11-21T06:43:26.205Z,1004.70
2022-11-21T06:45:01.167Z,1004.74
2022-11-21T06:46:04.024Z,1004.69
2022-11-21T06:47:07.062Z,1004.69
2022-11-21T06:48:41.755Z,1004.68
2022-11-21T06:49:44.688Z,1004.70
2022-11-21T06:50:47.596Z,1004.73
2022-11-21T06:52:22.238Z,1004.72
2022-11-21T06:53:25.292Z,1004.71
2022-11-21T06:54:28.703Z,1004.71
2022-11-21T06:56:03.822Z,1004.71
2022-11-21T06:57:06.914Z,1004.71
2022-11-21T06:58:09.921Z,1004.66
2022-11-21T06:59:44.743Z,1004.66
2022-11-21T07:00:23.872Z,1004.66
2022-11-21T07:01:27.334Z,1004.67
2022-11-21T07:02:30.626Z,1004.68
2022-11-21T07:04:05.938Z,1004.67
2022-11-21T07:05:08.748Z,1004.76
2022-11-21T07:06:11.721Z,1004.83
2022-11-21T07:07:47.218Z,1004.84
2022-11-21T07:09:33.498Z,1004.87
2022-11-21T07:10:37.418Z,1004.83
2022-11-21T07:12:51.922Z,1004.74
2022-11-21T07:13:54.784Z,1004.74
2022-11-21T07:15:03.645Z,1004.73
2022-11-21T07:16:38.310Z,1004.72
2022-11-21T07:17:41.282Z,1004.72
2022-11-21T07:18:44.323Z,1004.76
2022-11-21T07:20:25.795Z,1004.83
2022-11-21T07:21:29.119Z,1004.80
2022-11-21T07:22:32.011Z,1004.86
2022-11-21T07:24:06.837Z,1004.83
2022-11-21T07:25:09.767Z,1004.81
2022-11-21T07:26:12.681Z,1004.81
2022-11-21T07:27:47.649Z,1004.84
2022-11-21T07:28:50.493Z,1004.83
2022-11-21T07:29:53.542Z,1004.82
2022-11-21T07:31:28.171Z,1004.82
2022-11-21T07:32:30.980Z,1004.82
2022-11-21T07:33:33.830Z,1004.81
2022-11-21T07:35:08.538Z,1004.85
2022-11-21T07:36:11.530Z,1004.83
2022-11-21T07:37:18.613Z,1004.83
2022-11-21T07:38:53.868Z,1004.75
2022-11-21T07:39:56.782Z,1004.73
2022-11-21T07:40:59.758Z,1004.72
2022-11-21T07:42:34.768Z,1004.68
2022-11-21T07:43:37.876Z,1004.66
2022-11-21T07:44:40.673Z,1004.63
2022-11-21T07:46:15.748Z,1004.62
2022-11-21T07:47:18.756Z,1004.66
2022-11-21T07:48:21.757Z,1004.70
2022-11-21T07:50:01.251Z,1004.72
2022-11-21T07:51:04.149Z,1004.80
2022-11-21T07:52:07.238Z,1004.77
2022-11-21T07:53:41.895Z,1004.78
2022-11-21T07:54:45.069Z,1004.78
2022-11-21T07:55:52.175Z,1004.72
2022-11-21T07:57:26.891Z,1004.74
2022-11-21T07:58:30.041Z,1004.70
2022-11-21T07:59:33.560Z,1004.75
2022-11-21T08:00:23.261Z,1004.72
2022-11-21T08:01:26.387Z,1004.73
2022-11-21T08:02:37.087Z,1004.68
2022-11-21T08:04:11.762Z,1004.63
2022-11-21T08:05:14.600Z,1004.65
2022-11-21T08:06:17.566Z,1004.60
2022-11-21T08:07:52.642Z,1004.58
2022-11-21T08:08:56.107Z,1004.56
2022-11-21T08:09:59.142Z,1004.61
2022-11-21T08:11:34.055Z,1004.60
2022-11-21T08:12:37.039Z,1004.55
2022-11-21T08:13:39.913Z,1004.50
2022-11-21T08:15:14.893Z,1004.44
2022-11-21T08:16:17.744Z,1004.46
2022-11-21T08:17:20.852Z,1004.44
2022-11-21T08:18:55.728Z,1004.42
2022-11-21T08:19:58.715Z,1004.53
2022-11-21T08:21:01.570Z,1004.53
2022-11-21T08:22:43.457Z,1004.54
2022-11-21T08:23:46.300Z,1004.50
2022-11-21T08:24:49.434Z,1004.48
2022-11-21T08:26:24.414Z,1004.42
2022-11-21T08:27:27.396Z,1004.47
2022-11-21T08:28:30.439Z,1004.50
2022-11-21T08:30:05.357Z,1004.46
2022-11-21T08:31:08.273Z,1004.42
2022-11-21T08:32:11.130Z,1004.45
2022-11-21T08:33:46.033Z,1004.41
2022-11-21T08:34:49.136Z,1004.38
2022-11-21T08:35:51.982Z,1004.36
2022-11-21T08:37:27.111Z,1004.38
2022-11-21T08:38:30.083Z,1004.40
2022-11-21T08:39:33.620Z,1004.37
2022-11-21T08:41:11.055Z,1004.37
2022-11-21T08:42:16.376Z,1004.33
2022-11-21T08:43:19.190Z,1004.30
2022-11-21T08:45:00.287Z,1004.29
2022-11-21T08:46:03.319Z,1004.22
2022-11-21T08:47:06.360Z,1004.19
2022-11-21T08:48:41.248Z,1004.20
2022-11-21T08:49:44.124Z,1004.20
2022-11-21T08:50:54.860Z,1004.24
2022-11-21T08:52:29.815Z,1004.22
2022-11-21T08:53:33.148Z,1004.17
2022-11-21T08:54:36.575Z,1004.20
2022-11-21T08:56:15.855Z,1004.15
2022-11-21T08:57:18.733Z,1004.22
2022-11-21T08:58:21.770Z,1004.24
2022-11-21T08:59:56.593Z,1004.24
2022-11-21T09:00:24.247Z,1004.26
2022-11-21T09:01:27.378Z,1004.29
2022-11-21T09:02:30.486Z,1004.25
2022-11-21T09:04:17.612Z,1004.18
2022-11-21T09:05:20.901Z,1004.17
2022-11-21T09:06:23.668Z,1004.13
2022-11-21T09:07:58.949Z,1004.10
2022-11-21T09:09:01.659Z,1004.10
2022-11-21T09:10:11.600Z,1004.06
2022-11-21T09:11:46.678Z,1004.07
2022-11-21T09:12:49.584Z,1004.04
2022-11-21T09:13:52.701Z,1004.01
2022-11-21T09:15:28.082Z,1003.97
2022-11-21T09:16:32.226Z,1003.96
2022-11-21T09:17:35.249Z,1003.96
2022-11-21T09:19:10.120Z,1003.89
2022-11-21T09:20:13.754Z,1003.83
2022-11-21T09:21:16.778Z,1003.79
2022-11-21T09:22:52.776Z,1003.79
2022-11-21T09:23:55.731Z,1003.79
2022-11-21T09:24:58.690Z,1003.73
2022-11-21T09:26:33.595Z,1003.71
2022-11-21T09:27:36.581Z,1003.71
2022-11-21T09:28:39.454Z,1003.71
2022-11-21T09:30:14.893Z,1003.73
2022-11-21T09:31:17.668Z,1003.71
2022-11-21T09:32:20.703Z,1003.75
2022-11-21T09:34:00.771Z,1003.72
2022-11-21T09:35:03.832Z,1003.71
2022-11-21T09:36:06.899Z,1003.71
2022-11-21T09:37:42.035Z,1003.73
2022-11-21T09:38:44.961Z,1003.69
2022-11-21T09:39:49.040Z,1003.68
2022-11-21T09:41:23.951Z,1003.64
2022-11-21T09:42:26.977Z,1003.66
2022-11-21T09:43:30.152Z,1003.63
2022-11-21T09:45:11.507Z,1003.65
2022-11-21T09:46:14.405Z,1003.69
2022-11-21T09:47:17.365Z,1003.66
2022-11-21T09:48:52.065Z,1003.63
2022-11-21T09:49:54.971Z,1003.65
2022-11-21T09:51:05.028Z,1003.64
2022-11-21T09:52:39.872Z,1003.64
2022-11-21T09:53:42.723Z,1003.63
2022-11-21T09:54:48.086Z,1003.62
2022-11-21T09:56:23.085Z,1003.57
2022-11-21T09:57:30.696Z,1003.56
2022-11-21T09:58:36.564Z,1003.54
2022-11-21T10:00:23.621Z,1003.49
2022-11-21T10:01:27.190Z,1003.44
2022-11-21T10:02:30.479Z,1003.46
2022-11-21T10:04:12.770Z,1003.39
2022-11-21T10:05:16.176Z,1003.36
2022-11-21T10:06:18.996Z,1003.38
2022-11-21T10:07:54.788Z,1003.43
2022-11-21T10:08:59.379Z,1003.40
2022-11-21T10:10:02.265Z,1003.32
2022-11-21T10:11:37.201Z,1003.29
2022-11-21T10:12:40.234Z,1003.25
2022-11-21T10:13:43.265Z,1003.26
2022-11-21T10:15:18.779Z,1003.17
2022-11-21T10:16:21.835Z,1003.15
2022-11-21T10:17:29.671Z,1003.07
2022-11-21T10:19:04.567Z,1003.07
2022-11-21T10:20:07.482Z,1003.01
2022-11-21T10:21:10.840Z,1002.93
2022-11-21T10:22:45.586Z,1002.89
2022-11-21T10:23:48.839Z,1002.89
2022-11-21T10:24:51.850Z,1002.90
2022-11-21T10:26:26.527Z,1002.80
2022-11-21T10:27:29.607Z,1002.78
2022-11-21T10:28:32.424Z,1002.77
2022-11-21T10:30:07.399Z,1002.79
2022-11-21T10:31:10.451Z,1002.80
2022-11-21T10:32:13.324Z,1002.73
2022-11-21T10:33:48.065Z,1002.77
2022-11-21T10:34:51.193Z,1002.73
2022-11-21T10:35:54.049Z,1002.71
2022-11-21T10:37:28.900Z,1002.65
2022-11-21T10:38:32.003Z,1002.64
2022-11-21T10:39:35.174Z,1002.65
2022-11-21T10:41:10.119Z,1002.61
2022-11-21T10:42:12.959Z,1002.58
2022-11-21T10:43:22.147Z,1002.56
2022-11-21T10:44:56.930Z,1002.56
2022-11-21T10:45:59.905Z,1002.56
2022-11-21T10:47:03.063Z,1002.53
2022-11-21T10:48:37.904Z,1002.50
2022-11-21T10:49:41.001Z,1002.44
2022-11-21T10:50:43.917Z,1002.43
2022-11-21T10:52:18.731Z,1002.37
2022-11-21T10:53:21.688Z,1002.40
2022-11-21T10:54:24.963Z,1002.41
2022-11-21T10:56:00.801Z,1002.36
2022-11-21T10:57:03.568Z,1002.38
2022-11-21T10:58:06.547Z,1002.36
2022-11-21T10:59:42.748Z,1002.36
2022-11-21T11:00:23.383Z,1002.36
2022-11-21T11:01:26.822Z,1002.28
2022-11-21T11:02:29.995Z,1002.23
2022-11-21T11:04:52.437Z,1002.26
2022-11-21T11:05:56.336Z,1002.27
2022-11-21T11:06:59.189Z,1002.28
2022-11-21T11:08:34.640Z,1002.22
2022-11-21T11:09:37.650Z,1002.29
2022-11-21T11:10:40.598Z,1002.29
2022-11-21T11:12:15.363Z,1002.32
2022-11-21T11:13:56.881Z,1002.32
2022-11-21T11:14:59.917Z,1002.30
2022-11-21T11:16:40.163Z,1002.29
2022-11-21T11:17:44.376Z,1002.26
2022-11-21T11:18:55.060Z,1002.21
2022-11-21T11:20:39.711Z,1002.22
2022-11-21T11:21:42.726Z,1002.25
2022-11-21T11:22:48.062Z,1002.26
2022-11-21T11:24:23.021Z,1002.29
2022-11-21T11:25:25.948Z,1002.27
2022-11-21T11:26:29.023Z,1002.22
2022-11-21T11:28:03.989Z,1002.22
2022-11-21T11:29:07.035Z,1002.15
2022-11-21T11:30:10.209Z,1002.13
2022-11-21T11:31:46.029Z,1002.10
2022-11-21T11:32:49.201Z,1002.05
2022-11-21T11:33:52.652Z,1002.01
2022-11-21T11:35:27.508Z,1002.00
2022-11-21T11:36:30.579Z,1001.97
2022-11-21T11:37:37.255Z,1001.92
2022-11-21T11:39:16.187Z,1001.85
2022-11-21T11:40:19.578Z,1001.86
2022-11-21T11:41:22.497Z,1001.80
2022-11-21T11:43:03.069Z,1001.70
2022-11-21T11:44:05.930Z,1001.70
2022-11-21T11:45:08.938Z,1001.72
2022-11-21T11:46:44.515Z,1001.73
2022-11-21T11:47:54.289Z,1001.77
2022-11-21T11:49:30.780Z,1001.73
2022-11-21T11:51:06.293Z,1001.74
2022-11-21T11:52:09.202Z,1001.71
2022-11-21T11:53:11.962Z,1001.76
2022-11-21T11:54:52.758Z,1001.75
2022-11-21T11:55:55.902Z,1001.72
2022-11-21T11:56:58.722Z,1001.76
2022-11-21T11:58:33.419Z,1001.72
2022-11-21T11:59:37.262Z,1001.70
2022-11-21T12:00:23.937Z,1001.69
2022-11-21T12:01:26.864Z,1001.66
2022-11-21T12:02:30.433Z,1001.55
2022-11-21T12:04:09.628Z,1001.58
2022-11-21T12:05:13.203Z,1001.56
2022-11-21T12:06:20.680Z,1001.54
2022-11-21T12:09:41.003Z,1001.42
2022-11-21T12:10:44.124Z,1001.41
2022-11-21T12:11:47.041Z,1001.34
2022-11-21T12:13:21.946Z,1001.36
2022-11-21T12:14:24.756Z,1001.32
2022-11-21T12:15:27.850Z,1001.27
2022-11-21T12:17:10.901Z,1001.27
2022-11-21T12:18:13.853Z,1001.26
2022-11-21T12:19:16.734Z,1001.26
2022-11-21T12:20:52.024Z,1001.28
2022-11-21T12:21:57.398Z,1001.24
2022-11-21T12:23:00.544Z,1001.21
2022-11-21T12:24:41.422Z,1001.19
2022-11-21T12:25:47.416Z,1001.16
2022-11-21T12:26:50.438Z,1001.12
2022-11-21T12:28:25.400Z,1001.12
2022-11-21T12:29:29.206Z,1001.13
2022-11-21T12:30:33.216Z,1001.11
2022-11-21T12:32:08.016Z,1001.05
2022-11-21T12:33:19.227Z,1001.05
2022-11-21T12:34:22.517Z,1000.98
2022-11-21T12:36:14.192Z,1000.94
2022-11-21T12:37:20.160Z,1000.92
2022-11-21T12:38:23.151Z,1000.84
2022-11-21T12:40:03.395Z,1000.80
2022-11-21T12:41:06.386Z,1000.77
2022-11-21T12:42:09.411Z,1000.80
2022-11-21T12:43:44.829Z,1000.77
2022-11-21T12:44:54.736Z,1000.74
2022-11-21T12:45:58.492Z,1000.77
2022-11-21T12:47:33.662Z,1000.74
2022-11-21T12:48:36.551Z,1000.70
2022-11-21T12:49:39.903Z,1000.65
2022-11-21T12:51:23.950Z,1000.60
2022-11-21T12:52:27.236Z,1000.59
2022-11-21T12:53:30.187Z,1000.56
2022-11-21T12:55:04.797Z,1000.53
2022-11-21T12:56:07.590Z,1000.47
2022-11-21T12:57:10.668Z,1000.49
2022-11-21T12:58:45.570Z,1000.47
2022-11-21T12:59:49.605Z,1000.49
2022-11-21T13:00:23.468Z,1000.50
2022-11-21T13:01:32.635Z,1000.50
2022-11-21T13:02:35.858Z,1000.44
2022-11-21T13:04:10.671Z,1000.37
2022-11-21T13:05:13.690Z,1000.38
2022-11-21T13:06:16.571Z,1000.30
2022-11-21T13:07:51.853Z,1000.30
2022-11-21T13:08:54.595Z,1000.27
2022-11-21T13:09:57.468Z,1000.27
2022-11-21T13:11:32.514Z,1000.23
2022-11-21T13:12:35.732Z,1000.26
2022-11-21T13:13:38.751Z,1000.24
2022-11-21T13:15:13.675Z,1000.27
2022-11-21T13:16:24.312Z,1000.22
2022-11-21T13:17:27.342Z,1000.24
2022-11-21T13:19:02.388Z,1000.22
2022-11-21T13:20:05.170Z,1000.21
2022-11-21T13:21:07.975Z,1000.18
2022-11-21T13:22:43.699Z,1000.14
2022-11-21T13:23:47.140Z,1000.11
2022-11-21T13:24:50.117Z,1000.06
2022-11-21T13:26:25.073Z,1000.03
2022-11-21T13:27:30.949Z,999.99
2022-11-21T13:28:37.082Z,999.99
2022-11-21T13:30:14.324Z,1000.01
2022-11-21T13:31:17.351Z,999.93
2022-11-21T13:32:20.228Z,999.90
2022-11-21T13:33:55.057Z,999.92
2022-11-21T13:34:57.976Z,999.88
2022-11-21T13:36:06.773Z,999.86
2022-11-21T13:37:41.767Z,999.85
2022-11-21T13:38:44.764Z,999.82
2022-11-21T13:39:48.080Z,999.80
2022-11-21T13:41:23.179Z,999.74
2022-11-21T13:42:31.864Z,999.78
2022-11-21T13:44:11.355Z,999.75
2022-11-21T13:45:47.134Z,999.74
2022-11-21T13:46:50.220Z,999.71
2022-11-21T13:48:02.669Z,999.70
2022-11-21T13:49:39.510Z,999.70
2022-11-21T13:50:42.453Z,999.67
2022-11-21T13:51:46.076Z,999.68
2022-11-21T13:53:20.827Z,999.67
2022-11-21T13:54:23.812Z,999.69
2022-11-21T13:55:26.849Z,999.65
2022-11-21T13:57:01.525Z,999.53
2022-11-21T13:58:04.579Z,999.54
2022-11-21T13:59:07.652Z,999.51
2022-11-21T14:00:29.846Z,999.51
2022-11-21T14:01:32.977Z,999.48
2022-11-21T14:02:36.621Z,999.44
2022-11-21T14:04:11.787Z,999.41
2022-11-21T14:05:14.553Z,999.36
2022-11-21T14:06:17.477Z,999.33
2022-11-21T14:07:59.763Z,999.33
2022-11-21T14:09:03.106Z,999.31
2022-11-21T14:10:06.116Z,999.25
2022-11-21T14:11:40.939Z,999.22
2022-11-21T14:12:50.809Z,999.21
2022-11-21T14:13:53.650Z,999.19
2022-11-21T14:15:28.699Z,999.15
2022-11-21T14:16:31.577Z,999.11
2022-11-21T14:17:34.446Z,999.15
2022-11-21T14:19:10.662Z,999.14
2022-11-21T14:20:14.084Z,999.14
2022-11-21T14:21:17.223Z,999.11
2022-11-21T14:22:57.001Z,999.01
2022-11-21T14:23:59.926Z,999.01
2022-11-21T14:25:02.717Z,998.97
2022-11-21T14:26:39.257Z,998.97
2022-11-21T14:27:49.544Z,998.89
2022-11-21T14:28:52.743Z,998.87
2022-11-21T14:30:28.115Z,998.84
2022-11-21T14:31:31.225Z,998.86
2022-11-21T14:32:34.425Z,998.83
2022-11-21T14:34:17.775Z,998.81
2022-11-21T14:35:21.456Z,998.78
2022-11-21T14:36:24.356Z,998.85
2022-11-21T14:37:59.580Z,998.81
2022-11-21T14:39:46.078Z,998.79
2022-11-21T14:40:54.758Z,998.77
2022-11-21T14:42:29.573Z,998.78
2022-11-21T14:43:33.201Z,998.74
2022-11-21T14:44:36.913Z,998.78
2022-11-21T14:46:11.681Z,998.73
2022-11-21T14:47:17.310Z,998.72
2022-11-21T14:48:24.645Z,998.65
2022-11-21T14:50:05.319Z,998.62
2022-11-21T14:51:10.127Z,998.54
2022-11-21T14:52:13.143Z,998.49
2022-11-21T14:53:48.179Z,998.47
2022-11-21T14:55:31.092Z,998.45
2022-11-21T14:56:34.658Z,998.39
2022-11-21T14:58:10.643Z,998.44
2022-11-21T14:59:13.767Z,998.39
2022-11-21T15:01:05.786Z,998.31
2022-11-21T15:02:08.678Z,998.29
2022-11-21T15:03:12.039Z,998.30